地図

経路データ

SID SEASON NUMBER BASIN SUBBASIN NAME ISO_TIME NATURE LAT LON WMO_WIND WMO_PRES WMO_AGENCY TRACK_TYPE DIST2LAND LANDFALL IFLAG USA_AGENCY USA_ATCF_ID USA_LAT USA_LON USA_RECORD USA_STATUS USA_WIND USA_PRES USA_SSHS USA_R34_NE USA_R34_SE USA_R34_SW USA_R34_NW USA_R50_NE USA_R50_SE USA_R50_SW USA_R50_NW USA_R64_NE USA_R64_SE USA_R64_SW USA_R64_NW USA_POCI USA_ROCI USA_RMW USA_EYE TOKYO_LAT TOKYO_LON TOKYO_GRADE TOKYO_WIND TOKYO_PRES TOKYO_R50_DIR TOKYO_R50_LONG TOKYO_R50_SHORT TOKYO_R30_DIR TOKYO_R30_LONG TOKYO_R30_SHORT TOKYO_LAND CMA_LAT CMA_LON CMA_CAT CMA_WIND CMA_PRES HKO_LAT HKO_LON HKO_CAT HKO_WIND HKO_PRES NEWDELHI_LAT NEWDELHI_LON NEWDELHI_GRADE NEWDELHI_WIND NEWDELHI_PRES NEWDELHI_CI NEWDELHI_DP NEWDELHI_POCI REUNION_LAT REUNION_LON REUNION_TYPE REUNION_WIND REUNION_PRES REUNION_TNUM REUNION_CI REUNION_RMW REUNION_R34_NE REUNION_R34_SE REUNION_R34_SW REUNION_R34_NW REUNION_R50_NE REUNION_R50_SE REUNION_R50_SW REUNION_R50_NW REUNION_R64_NE REUNION_R64_SE REUNION_R64_SW REUNION_R64_NW BOM_LAT BOM_LON BOM_TYPE BOM_WIND BOM_PRES BOM_TNUM BOM_CI BOM_RMW BOM_R34_NE BOM_R34_SE BOM_R34_SW BOM_R34_NW BOM_R50_NE BOM_R50_SE BOM_R50_SW BOM_R50_NW BOM_R64_NE BOM_R64_SE BOM_R64_SW BOM_R64_NW BOM_ROCI BOM_POCI BOM_EYE BOM_POS_METHOD BOM_PRES_METHOD NADI_LAT NADI_LON NADI_CAT NADI_WIND NADI_PRES WELLINGTON_LAT WELLINGTON_LON WELLINGTON_WIND WELLINGTON_PRES DS824_LAT DS824_LON DS824_STAGE DS824_WIND DS824_PRES TD9636_LAT TD9636_LON TD9636_STAGE TD9636_WIND TD9636_PRES TD9635_LAT TD9635_LON TD9635_WIND TD9635_PRES TD9635_ROCI NEUMANN_LAT NEUMANN_LON NEUMANN_CLASS NEUMANN_WIND NEUMANN_PRES MLC_LAT MLC_LON MLC_CLASS MLC_WIND MLC_PRES USA_GUST BOM_GUST BOM_GUST_PER REUNION_GUST REUNION_GUST_PER USA_SEAHGT USA_SEARAD_NE USA_SEARAD_SE USA_SEARAD_SW USA_SEARAD_NW STORM_SPEED STORM_DIR
1934156N17273 1934 23 NA CS NOT_NAMED 1934-06-04 12:00:00 TS 17.0000 -87.0000 30 hurdat_atl main 127 127 O_____________ hurdat_atl AL011934 17.0000 -87.0000 TD 30 -1 1 267
1934156N17273 1934 23 NA CS NOT_NAMED 1934-06-04 15:00:00 TS 16.9975 -87.0525 main 116 116 P_____________ AL011934 16.9975 -87.0525 TD 32 -1 1 270
1934156N17273 1934 23 NA CS NOT_NAMED 1934-06-04 18:00:00 TS 17.0000 -87.1000 35 hurdat_atl main 116 116 O_____________ hurdat_atl AL011934 17.0000 -87.1000 TS 35 0 1 276
1934156N17273 1934 23 NA CS NOT_NAMED 1934-06-04 21:00:00 TS 17.0075 -87.1425 main 116 106 P_____________ AL011934 17.0075 -87.1425 TS 37 0 1 270
1934156N17273 1934 23 NA CS NOT_NAMED 1934-06-05 00:00:00 TS 17.0000 -87.2000 40 hurdat_atl main 106 95 O_____________ hurdat_atl AL011934 17.0000 -87.2000 TS 40 0 1 249
1934156N17273 1934 23 NA CS NOT_NAMED 1934-06-05 03:00:00 TS 16.9575 -87.2775 main 95 85 P_____________ AL011934 16.9575 -87.2775 TS 42 0 2 242
1934156N17273 1934 23 NA CS NOT_NAMED 1934-06-05 06:00:00 TS 16.9000 -87.4000 45 hurdat_atl main 85 64 O_____________ hurdat_atl AL011934 16.9000 -87.4000 TS 45 0 3 248
1934156N17273 1934 23 NA CS NOT_NAMED 1934-06-05 09:00:00 TS 16.8499 -87.5625 main 67 48 P_____________ AL011934 16.8499 -87.5625 TS 45 0 4 255
1934156N17273 1934 23 NA CS NOT_NAMED 1934-06-05 12:00:00 TS 16.8000 -87.8000 45 hurdat_atl main 48 21 O_____________ hurdat_atl AL011934 16.8000 -87.8000 TS 45 0 5 260
1934156N17273 1934 23 NA CS NOT_NAMED 1934-06-05 15:00:00 TS 16.7574 -88.1049 main 21 0 P_____________ AL011934 16.7574 -88.1049 TS 42 0 7 262
1934156N17273 1934 23 NA NA NOT_NAMED 1934-06-05 18:00:00 TS 16.7000 -88.5000 40 hurdat_atl main 0 0 O_____________ hurdat_atl AL011934 16.7000 -88.5000 TS 40 0 9 260
1934156N17273 1934 23 NA NA NOT_NAMED 1934-06-05 21:00:00 TS 16.6075 -88.9775 main 0 0 P_____________ AL011934 16.6075 -88.9775 TS 40 0 10 258
1934156N17273 1934 23 NA NA NOT_NAMED 1934-06-06 00:00:00 TS 16.5000 -89.5000 40 hurdat_atl main 0 0 O_____________ hurdat_atl AL011934 16.5000 -89.5000 TS 40 0 10 259
1934156N17273 1934 23 NA NA NOT_NAMED 1934-06-06 03:00:00 TS 16.4076 -90.0375 main 0 0 P_____________ AL011934 16.4076 -90.0375 TS 37 0 10 258
1934156N17273 1934 23 NA NA NOT_NAMED 1934-06-06 06:00:00 TS 16.3000 -90.5000 35 hurdat_atl main 0 0 O_____________ hurdat_atl AL011934 16.3000 -90.5000 TS 35 0 8 252
1934156N17273 1934 23 NA NA NOT_NAMED 1934-06-06 09:00:00 TS 16.1723 -90.7949 main 0 0 P_____________ AL011934 16.1723 -90.7949 TS 35 0 6 238
1934156N17273 1934 23 NA NA NOT_NAMED 1934-06-06 12:00:00 TS 16.0000 -91.0000 35 hurdat_atl main 0 0 O_____________ hurdat_atl AL011934 16.0000 -91.0000 TS 35 0 6 225
1934156N17273 1934 23 NA NA NOT_NAMED 1934-06-06 15:00:00 TS 15.7650 -91.2150 main 0 0 P_____________ AL011934 15.7650 -91.2150 TS 32 -1 6 218
1934156N17273 1934 23 NA NA NOT_NAMED 1934-06-06 18:00:00 TS 15.5000 -91.4000 30 hurdat_atl main 0 0 O_____________ hurdat_atl AL011934 15.5000 -91.4000 TD 30 -1 6 214
1934156N17273 1934 23 NA NA NOT_NAMED 1934-06-06 21:00:00 TS 15.2500 -91.5800 main 0 0 P_____________ AL011934 15.2500 -91.5800 TD 30 -1 6 210
1934156N17273 1934 23 NA NA NOT_NAMED 1934-06-07 00:00:00 TS 15.0000 -91.7000 30 hurdat_atl main 0 0 O_____________ hurdat_atl AL011934 15.0000 -91.7000 TD 30 -1 5 197
1934156N17273 1934 23 NA NA NOT_NAMED 1934-06-07 03:00:00 TS 14.7500 -91.7375 main 0 0 P_____________ AL011934 14.7500 -91.7375 TD 32 -1 5 178
1934156N17273 1934 23 NA NA NOT_NAMED 1934-06-07 06:00:00 TS 14.5000 -91.7000 35 hurdat_atl main 0 0 O_____________ hurdat_atl AL011934 14.5000 -91.7000 TS 35 0 6 172
1934156N17273 1934 23 NA NA NOT_NAMED 1934-06-07 09:00:00 TS 14.1974 -91.6599 main 0 0 P_____________ AL011934 14.1974 -91.6599 TS 40 0 5 159
1934156N17273 1934 23 EP MM NOT_NAMED 1934-06-07 12:00:00 TS 14.0000 -91.5000 45 hurdat_atl main 10 0 O_____________ hurdat_atl AL011934 14.0000 -91.5000 TS 45 0 5 114
1934156N17273 1934 23 EP MM NOT_NAMED 1934-06-07 15:00:00 TS 13.9875 -91.1672 main 0 0 P_____________ AL011934 13.9875 -91.1672 TS 45 0 8 76
1934156N17273 1934 23 EP MM NOT_NAMED 1934-06-07 18:00:00 TS 14.2000 -90.7000 45 hurdat_atl main 0 0 O_____________ hurdat_atl AL011934 14.2000 -90.7000 TS 45 0 11 56
1934156N17273 1934 23 EP MM NOT_NAMED 1934-06-07 21:00:00 TS 14.6174 -90.1874 main 0 0 P_____________ AL011934 14.6174 -90.1874 TS 42 0 15 47
1934156N17273 1934 23 EP MM NOT_NAMED 1934-06-08 00:00:00 TS 15.2000 -89.6000 40 hurdat_atl main 0 0 O_____________ hurdat_atl AL011934 15.2000 -89.6000 TS 40 0 17 45
1934156N17273 1934 23 EP MM NOT_NAMED 1934-06-08 03:00:00 TS 15.8352 -88.9278 main 0 0 P_____________ AL011934 15.8352 -88.9278 TS 42 0 18 44
1934156N17273 1934 23 NA CS NOT_NAMED 1934-06-08 06:00:00 TS 16.5000 -88.3000 45 hurdat_atl main 10 10 O_____________ hurdat_atl AL011934 16.5000 -88.3000 TS 45 0 17 39
1934156N17273 1934 23 NA CS NOT_NAMED 1934-06-08 09:00:00 TS 17.1298 -87.8248 main 43 43 P_____________ AL011934 17.1298 -87.8248 TS 47 0 14 32
1934156N17273 1934 23 NA CS NOT_NAMED 1934-06-08 12:00:00 TS 17.7000 -87.5000 50 hurdat_atl main 64 47 O_____________ hurdat_atl AL011934 17.7000 -87.5000 TS 50 0 12 26
1934156N17273 1934 23 NA CS NOT_NAMED 1934-06-08 15:00:00 TS 18.1799 -87.2823 main 52 52 P_____________ AL011934 18.1799 -87.2823 TS 55 0 10 18
1934156N17273 1934 23 NA CS NOT_NAMED 1934-06-08 18:00:00 TS 18.6000 -87.2000 60 hurdat_atl main 52 38 O_____________ hurdat_atl AL011934 18.6000 -87.2000 TS 60 0 9 6
1934156N17273 1934 23 NA CS NOT_NAMED 1934-06-08 21:00:00 TS 19.0224 -87.1974 main 38 15 P_____________ AL011934 19.0224 -87.1974 TS 65 1 8 353
1934156N17273 1934 23 NA CS NOT_NAMED 1934-06-09 00:00:00 TS 19.4000 -87.3000 70 hurdat_atl main 15 0 O_____________ hurdat_atl AL011934 19.4000 -87.3000 HU 70 1 8 341
1934156N17273 1934 23 NA CS NOT_NAMED 1934-06-09 03:00:00 TS 19.7299 -87.4550 main 11 0 P_____________ AL011934 19.7299 -87.4550 HU 67 1 7 328
1934156N17273 1934 23 NA NA NOT_NAMED 1934-06-09 06:00:00 TS 20.0000 -87.7000 65 hurdat_atl main 0 0 O_____________ hurdat_atl AL011934 20.0000 -87.7000 HU 65 1 7 312
1934156N17273 1934 23 NA NA NOT_NAMED 1934-06-09 09:00:00 TS 20.2150 -88.0276 main 0 0 P_____________ AL011934 20.2150 -88.0276 HU 60 0 8 301
1934156N17273 1934 23 NA NA NOT_NAMED 1934-06-09 12:00:00 TS 20.4000 -88.4000 55 hurdat_atl main 0 0 O_____________ hurdat_atl AL011934 20.4000 -88.4000 TS 55 0 8 300
1934156N17273 1934 23 NA NA NOT_NAMED 1934-06-09 15:00:00 TS 20.5999 -88.7501 main 0 0 P_____________ AL011934 20.5999 -88.7501 TS 47 0 8 301
1934156N17273 1934 23 NA NA NOT_NAMED 1934-06-09 18:00:00 TS 20.8000 -89.1000 40 hurdat_atl main 0 0 O_____________ hurdat_atl AL011934 20.8000 -89.1000 TS 40 0 8 302
1934156N17273 1934 23 NA NA NOT_NAMED 1934-06-09 21:00:00 TS 20.9998 -89.4277 main 0 0 P_____________ AL011934 20.9998 -89.4277 TS 37 0 8 301
1934156N17273 1934 23 NA NA NOT_NAMED 1934-06-10 00:00:00 TS 21.2000 -89.8000 35 hurdat_atl main 0 0 O_____________ hurdat_atl AL011934 21.2000 -89.8000 TS 35 0 9 297
1934156N17273 1934 23 NA GM NOT_NAMED 1934-06-10 03:00:00 TS 21.4151 -90.2849 main 33 33 P_____________ AL011934 21.4151 -90.2849 TS 37 0 10 293
1934156N17273 1934 23 NA GM NOT_NAMED 1934-06-10 06:00:00 TS 21.6000 -90.8000 40 hurdat_atl main 76 76 O_____________ hurdat_atl AL011934 21.6000 -90.8000 TS 40 0 10 288
1934156N17273 1934 23 NA GM NOT_NAMED 1934-06-10 09:00:00 TS 21.7149 -91.2652 main 123 123 P_____________ AL011934 21.7149 -91.2652 TS 42 0 9 283
1934156N17273 1934 23 NA GM NOT_NAMED 1934-06-10 12:00:00 TS 21.8000 -91.7000 45 hurdat_atl main 164 164 O_____________ hurdat_atl AL011934 21.8000 -91.7000 TS 45 0 8 284
1934156N17273 1934 23 NA GM NOT_NAMED 1934-06-10 15:00:00 TS 21.9148 -92.1074 main 206 206 P_____________ AL011934 21.9148 -92.1074 TS 47 0 8 285
1934156N17273 1934 23 NA GM NOT_NAMED 1934-06-10 18:00:00 TS 22.0000 -92.5000 50 hurdat_atl main 248 248 O_____________ hurdat_atl AL011934 22.0000 -92.5000 TS 50 0 8 278
1934156N17273 1934 23 NA GM NOT_NAMED 1934-06-10 21:00:00 TS 22.0225 -92.9151 main 287 287 P_____________ AL011934 22.0225 -92.9151 TS 50 0 7 270
1934156N17273 1934 23 NA GM NOT_NAMED 1934-06-11 00:00:00 TS 22.0000 -93.3000 50 hurdat_atl main 326 326 O_____________ hurdat_atl AL011934 22.0000 -93.3000 TS 50 0 7 265
1934156N17273 1934 23 NA GM NOT_NAMED 1934-06-11 03:00:00 TS 21.9650 -93.6375 main 355 342 P_____________ AL011934 21.9650 -93.6375 TS 50 0 6 260
1934156N17273 1934 23 NA GM NOT_NAMED 1934-06-11 06:00:00 TS 21.9000 -93.9000 50 hurdat_atl main 342 319 O_____________ hurdat_atl AL011934 21.9000 -93.9000 TS 50 0 5 249
1934156N17273 1934 23 NA GM NOT_NAMED 1934-06-11 09:00:00 TS 21.7999 -94.0950 main 319 304 P_____________ AL011934 21.7999 -94.0950 TS 52 0 3 235
1934156N17273 1934 23 NA GM NOT_NAMED 1934-06-11 12:00:00 TS 21.7000 -94.2000 55 hurdat_atl main 304 297 O_____________ hurdat_atl AL011934 21.7000 -94.2000 TS 55 0 2 220
1934156N17273 1934 23 NA GM NOT_NAMED 1934-06-11 15:00:00 TS 21.6425 -94.2375 main 297 297 P_____________ AL011934 21.6425 -94.2375 TS 57 0 1 0
1934156N17273 1934 23 NA GM NOT_NAMED 1934-06-11 18:00:00 TS 21.6000 -94.2000 60 hurdat_atl main 297 297 O_____________ hurdat_atl AL011934 21.6000 -94.2000 TS 60 0 1 134
1934156N17273 1934 23 NA GM NOT_NAMED 1934-06-11 21:00:00 TS 21.5425 -94.1225 main 298 298 P_____________ AL011934 21.5425 -94.1225 TS 60 0 2 119
1934156N17273 1934 23 NA GM NOT_NAMED 1934-06-12 00:00:00 TS 21.5000 -94.0000 60 hurdat_atl main 307 307 O_____________ hurdat_atl AL011934 21.5000 -94.0000 TS 60 0 3 101
1934156N17273 1934 23 NA GM NOT_NAMED 1934-06-12 03:00:00 TS 21.4925 -93.8575 main 315 315 P_____________ AL011934 21.4925 -93.8575 TS 62 0 3 90
1934156N17273 1934 23 NA GM NOT_NAMED 1934-06-12 06:00:00 TS 21.5000 -93.7000 65 hurdat_atl main 332 332 O_____________ hurdat_atl AL011934 21.5000 -93.7000 HU 65 1 3 88
1934156N17273 1934 23 NA GM NOT_NAMED 1934-06-12 09:00:00 TS 21.5000 -93.5500 main 330 320 P_____________ AL011934 21.5000 -93.5500 HU 67 1 3 90
1934156N17273 1934 23 NA GM NOT_NAMED 1934-06-12 12:00:00 TS 21.5000 -93.4000 70 hurdat_atl main 320 310 O_____________ hurdat_atl AL011934 21.5000 -93.4000 HU 70 1 3 90
1934156N17273 1934 23 NA GM NOT_NAMED 1934-06-12 15:00:00 TS 21.5000 -93.2425 main 300 290 P_____________ AL011934 21.5000 -93.2425 HU 70 1 3 90
1934156N17273 1934 23 NA GM NOT_NAMED 1934-06-12 18:00:00 TS 21.5000 -93.1000 70 hurdat_atl main 290 280 O_____________ hurdat_atl AL011934 21.5000 -93.1000 HU 70 1 2 90
1934156N17273 1934 23 NA GM NOT_NAMED 1934-06-12 21:00:00 TS 21.5000 -92.9925 main 280 270 P_____________ AL011934 21.5000 -92.9925 HU 72 1 2 90
1934156N17273 1934 23 NA GM NOT_NAMED 1934-06-13 00:00:00 TS 21.5000 -92.9000 75 hurdat_atl main 270 260 O_____________ hurdat_atl AL011934 21.5000 -92.9000 HU 75 1 2 95
1934156N17273 1934 23 NA GM NOT_NAMED 1934-06-13 03:00:00 TS 21.4850 -92.8000 main 260 250 P_____________ AL011934 21.4850 -92.8000 HU 75 1 2 90
1934156N17273 1934 23 NA GM NOT_NAMED 1934-06-13 06:00:00 TS 21.5000 -92.7000 75 hurdat_atl main 250 241 O_____________ hurdat_atl AL011934 21.5000 -92.7000 HU 75 1 2 63
1934156N17273 1934 23 NA GM NOT_NAMED 1934-06-13 09:00:00 TS 21.5775 -92.6000 main 244 234 P_____________ AL011934 21.5775 -92.6000 HU 77 1 3 43
1934156N17273 1934 23 NA GM NOT_NAMED 1934-06-13 12:00:00 TS 21.7000 -92.5000 80 978 hurdat_atl main 237 230 O_____________ hurdat_atl AL011934 21.7000 -92.5000 HU 80 978 1 3 36
1934156N17273 1934 23 NA GM NOT_NAMED 1934-06-13 15:00:00 TS 21.8425 -92.3925 main 230 225 P_____________ AL011934 21.8425 -92.3925 HU 80 1 4 31
1934156N17273 1934 23 NA GM NOT_NAMED 1934-06-13 18:00:00 TS 22.0000 -92.3000 80 hurdat_atl main 229 225 O_____________ hurdat_atl AL011934 22.0000 -92.3000 HU 80 1 3 24
1934156N17273 1934 23 NA GM NOT_NAMED 1934-06-13 21:00:00 TS 22.1500 -92.2425 main 225 225 P_____________ AL011934 22.1500 -92.2425 HU 80 1 3 16
1934156N17273 1934 23 NA GM NOT_NAMED 1934-06-14 00:00:00 TS 22.3000 -92.2000 80 hurdat_atl main 237 237 O_____________ hurdat_atl AL011934 22.3000 -92.2000 HU 80 1 3 17
1934156N17273 1934 23 NA GM NOT_NAMED 1934-06-14 03:00:00 TS 22.4350 -92.1500 main 235 235 P_____________ AL011934 22.4350 -92.1500 HU 80 1 3 16
1934156N17273 1934 23 NA GM NOT_NAMED 1934-06-14 06:00:00 TS 22.6000 -92.1000 80 hurdat_atl main 250 250 O_____________ hurdat_atl AL011934 22.6000 -92.1000 HU 80 1 4 12
1934156N17273 1934 23 NA GM NOT_NAMED 1934-06-14 09:00:00 TS 22.8275 -92.0574 main 265 265 P_____________ AL011934 22.8275 -92.0574 HU 80 1 5 10
1934156N17273 1934 23 NA GM NOT_NAMED 1934-06-14 12:00:00 TS 23.1000 -92.0000 80 hurdat_atl main 283 283 O_____________ hurdat_atl AL011934 23.1000 -92.0000 HU 80 1 6 14
1934156N17273 1934 23 NA GM NOT_NAMED 1934-06-14 15:00:00 TS 23.3925 -91.9075 main 305 305 P_____________ AL011934 23.3925 -91.9075 HU 82 1 6 17
1934156N17273 1934 23 NA GM NOT_NAMED 1934-06-14 18:00:00 TS 23.7000 -91.8000 85 hurdat_atl main 329 329 O_____________ hurdat_atl AL011934 23.7000 -91.8000 HU 85 2 7 17
1934156N17273 1934 23 NA GM NOT_NAMED 1934-06-14 21:00:00 TS 24.0150 -91.7000 main 354 354 P_____________ AL011934 24.0150 -91.7000 HU 85 2 6 17
1934156N17273 1934 23 NA GM NOT_NAMED 1934-06-15 00:00:00 TS 24.3000 -91.6000 85 hurdat_atl main 381 381 O_____________ hurdat_atl AL011934 24.3000 -91.6000 HU 85 2 5 21
1934156N17273 1934 23 NA GM NOT_NAMED 1934-06-15 03:00:00 TS 24.5075 -91.4925 main 399 399 P_____________ AL011934 24.5075 -91.4925 HU 85 2 4 24
1934156N17273 1934 23 NA GM NOT_NAMED 1934-06-15 06:00:00 TS 24.7000 -91.4000 85 hurdat_atl main 417 417 O_____________ hurdat_atl AL011934 24.7000 -91.4000 HU 85 2 5 18
1934156N17273 1934 23 NA GM NOT_NAMED 1934-06-15 09:00:00 TS 24.9425 -91.3425 main 436 436 P_____________ AL011934 24.9425 -91.3425 HU 85 2 5 10
1934156N17273 1934 23 NA GM NOT_NAMED 1934-06-15 12:00:00 TS 25.2000 -91.3000 85 hurdat_atl main 437 414 O_____________ hurdat_atl AL011934 25.2000 -91.3000 HU 85 2 5 10
1934156N17273 1934 23 NA GM NOT_NAMED 1934-06-15 15:00:00 TS 25.4425 -91.2425 main 414 380 P_____________ AL011934 25.4425 -91.2425 HU 85 2 5 10
1934156N17273 1934 23 NA GM NOT_NAMED 1934-06-15 18:00:00 TS 25.7000 -91.2000 85 hurdat_atl main 380 347 O_____________ hurdat_atl AL011934 25.7000 -91.2000 HU 85 2 5 6
1934156N17273 1934 23 NA GM NOT_NAMED 1934-06-15 21:00:00 TS 25.9775 -91.1850 main 347 314 P_____________ AL011934 25.9775 -91.1850 HU 85 2 6 1
1934156N17273 1934 23 NA GM NOT_NAMED 1934-06-16 00:00:00 TS 26.3000 -91.2000 85 hurdat_atl main 314 280 O_____________ hurdat_atl AL011934 26.3000 -91.2000 HU 85 2 7 357
1934156N17273 1934 23 NA GM NOT_NAMED 1934-06-16 03:00:00 TS 26.6550 -91.2351 main 269 226 P_____________ AL011934 26.6550 -91.2351 HU 85 2 8 354
1934156N17273 1934 23 NA GM NOT_NAMED 1934-06-16 06:00:00 TS 27.1000 -91.3000 85 hurdat_atl main 226 174 O_____________ hurdat_atl AL011934 27.1000 -91.3000 HU 85 2 10 352
1934156N17273 1934 23 NA GM NOT_NAMED 1934-06-16 09:00:00 TS 27.6625 -91.3925 main 163 106 P_____________ AL011934 27.6625 -91.3925 HU 85 2 12 352
1934156N17273 1934 23 NA GM NOT_NAMED 1934-06-16 12:00:00 TS 28.3000 -91.5000 85 hurdat_atl main 106 53 O_____________ hurdat_atl AL011934 28.3000 -91.5000 HU 85 2 14 351
1934156N17273 1934 23 NA GM NOT_NAMED 1934-06-16 15:00:00 TS 29.0385 -91.6268 main 53 0 P_____________ AL011934 29.0385 -91.6268 HU 85 2 13 352
1934156N17273 1934 23 NA GM NOT_NAMED 1934-06-16 18:00:00 TS 29.6000 -91.7000 85 966 hurdat_atl main 0 0 O_____________ hurdat_atl AL011934 29.6000 -91.7000 HU 85 966 2 10 354
1934156N17273 1934 23 NA GM NOT_NAMED 1934-06-16 19:00:00 TS 29.7000 -91.7000 85 966 hurdat_atl main 9 0 O_____________ hurdat_atl AL011934 29.7000 -91.7000 L HU 85 966 2 10 10
1934156N17273 1934 23 NA NA NOT_NAMED 1934-06-16 21:00:00 TS 30.0898 -91.5942 main 0 0 P_____________ AL011934 30.0898 -91.5942 HU 74 1 15 16
1934156N17273 1934 23 NA NA NOT_NAMED 1934-06-17 00:00:00 TS 30.9000 -91.3000 60 hurdat_atl main 0 0 O_____________ hurdat_atl AL011934 30.9000 -91.3000 TS 60 0 15 16
1934156N17273 1934 23 NA NA NOT_NAMED 1934-06-17 03:00:00 TS 31.5196 -91.1073 main 0 0 P_____________ AL011934 31.5196 -91.1073 TS 52 0 13 16
1934156N17273 1934 23 NA NA NOT_NAMED 1934-06-17 06:00:00 TS 32.1000 -90.9000 45 hurdat_atl main 0 0 O_____________ hurdat_atl AL011934 32.1000 -90.9000 TS 45 0 13 18
1934156N17273 1934 23 NA NA NOT_NAMED 1934-06-17 09:00:00 TS 32.7223 -90.6373 main 0 0 P_____________ AL011934 32.7223 -90.6373 TS 40 0 13 23
1934156N17273 1934 23 NA NA NOT_NAMED 1934-06-17 12:00:00 TS 33.3000 -90.3000 35 hurdat_atl main 0 0 O_____________ hurdat_atl AL011934 33.3000 -90.3000 TS 35 0 12 30
1934156N17273 1934 23 NA NA NOT_NAMED 1934-06-17 15:00:00 TS 33.7722 -89.9016 main 0 0 P_____________ AL011934 33.7722 -89.9016 TS 35 0 12 40
1934156N17273 1934 23 NA NA NOT_NAMED 1934-06-17 18:00:00 TS 34.2000 -89.4000 35 hurdat_atl main 0 0 O_____________ hurdat_atl AL011934 34.2000 -89.4000 TS 35 0 13 45
1934156N17273 1934 23 NA NA NOT_NAMED 1934-06-17 21:00:00 TS 34.6493 -88.8240 main 0 0 P_____________ AL011934 34.6493 -88.8240 TS 35 0 14 50
1934156N17273 1934 23 NA NA NOT_NAMED 1934-06-18 00:00:00 TS 35.1000 -88.1000 35 hurdat_atl main 0 0 O_____________ hurdat_atl AL011934 35.1000 -88.1000 TS 35 0 16 56
1934156N17273 1934 23 NA NA NOT_NAMED 1934-06-18 03:00:00 TS 35.5575 -87.2023 main 0 0 P_____________ AL011934 35.5575 -87.2023 TS 32 -1 18 60
1934156N17273 1934 23 NA NA NOT_NAMED 1934-06-18 06:00:00 TS 36.0000 -86.2000 30 hurdat_atl main 0 0 O_____________ hurdat_atl AL011934 36.0000 -86.2000 TD 30 -1 18 62
1934156N17273 1934 23 NA NA NOT_NAMED 1934-06-18 09:00:00 TS 36.4068 -85.2063 main 0 0 P_____________ AL011934 36.4068 -85.2063 TD 30 -1 18 64
1934156N17273 1934 23 NA NA NOT_NAMED 1934-06-18 12:00:00 ET 36.8000 -84.2000 30 hurdat_atl main 0 0 O_____________ hurdat_atl AL011934 36.8000 -84.2000 EX 30 -4 18 64
1934156N17273 1934 23 NA NA NOT_NAMED 1934-06-18 15:00:00 ET 37.1992 -83.1989 main 0 0 P_____________ AL011934 37.1992 -83.1989 EX 32 -4 18 63
1934156N17273 1934 23 NA NA NOT_NAMED 1934-06-18 18:00:00 ET 37.6000 -82.2000 35 hurdat_atl main 0 0 O_____________ hurdat_atl AL011934 37.6000 -82.2000 EX 35 -4 17 62
1934156N17273 1934 23 NA NA NOT_NAMED 1934-06-18 21:00:00 ET 38.0052 -81.2508 main 0 0 P_____________ AL011934 38.0052 -81.2508 EX 37 -4 18 63
1934156N17273 1934 23 NA NA NOT_NAMED 1934-06-19 00:00:00 ET 38.4000 -80.2000 40 hurdat_atl main 0 0 O_____________ hurdat_atl AL011934 38.4000 -80.2000 EX 40 -4 20 68
1934156N17273 1934 23 NA NA NOT_NAMED 1934-06-19 03:00:00 ET 38.7590 -78.8573 main 0 0 P_____________ AL011934 38.7590 -78.8573 EX 40 -4 22 72
1934156N17273 1934 23 NA NA NOT_NAMED 1934-06-19 06:00:00 ET 39.1000 -77.5000 40 hurdat_atl main 0 0 O_____________ hurdat_atl AL011934 39.1000 -77.5000 EX 40 -4 21 70
1934156N17273 1934 23 NA NA NOT_NAMED 1934-06-19 09:00:00 ET 39.4562 -76.3594 main 0 0 P_____________ AL011934 39.4562 -76.3594 EX 40 -4 18 67
1934156N17273 1934 23 NA NA NOT_NAMED 1934-06-19 12:00:00 ET 39.8000 -75.4000 40 hurdat_atl main 0 0 O_____________ hurdat_atl AL011934 39.8000 -75.4000 EX 40 -4 15 64
1934156N17273 1934 23 NA NA NOT_NAMED 1934-06-19 15:00:00 ET 40.1135 -74.6037 main 0 0 P_____________ AL011934 40.1135 -74.6037 EX 40 -4 13 62
1934156N17273 1934 23 NA NA NOT_NAMED 1934-06-19 18:00:00 ET 40.4000 -73.9000 40 hurdat_atl main 8 0 O_____________ hurdat_atl AL011934 40.4000 -73.9000 EX 40 -4 12 64
1934156N17273 1934 23 NA NA NOT_NAMED 1934-06-19 21:00:00 ET 40.6492 -73.1637 main 11 0 P_____________ AL011934 40.6492 -73.1637 EX 40 -4 12 66
1934156N17273 1934 23 NA NA NOT_NAMED 1934-06-20 00:00:00 ET 40.9000 -72.4000 40 hurdat_atl main 13 13 O_____________ hurdat_atl AL011934 40.9000 -72.4000 EX 40 -4 13 67
1934156N17273 1934 23 NA NA NOT_NAMED 1934-06-20 03:00:00 ET 41.1613 -71.6002 main 22 8 P_____________ AL011934 41.1613 -71.6002 EX 40 -4 14 65
1934156N17273 1934 23 NA NA NOT_NAMED 1934-06-20 06:00:00 ET 41.5000 -70.7000 40 hurdat_atl main 0 0 O_____________ hurdat_atl AL011934 41.5000 -70.7000 EX 40 -4 17 62
1934156N17273 1934 23 NA NA NOT_NAMED 1934-06-20 09:00:00 ET 41.9329 -69.6214 main 34 34 P_____________ AL011934 41.9329 -69.6214 EX 42 -4 19 59
1934156N17273 1934 23 NA NA NOT_NAMED 1934-06-20 12:00:00 ET 42.5000 -68.5000 45 hurdat_atl main 145 123 O_____________ hurdat_atl AL011934 42.5000 -68.5000 EX 45 -4 20 51
1934156N17273 1934 23 NA NA NOT_NAMED 1934-06-20 15:00:00 ET 43.1965 -67.4760 main 123 31 P_____________ AL011934 43.1965 -67.4760 EX 45 -4 21 44
1934156N17273 1934 23 NA NA NOT_NAMED 1934-06-20 18:00:00 ET 44.0000 -66.5000 45 hurdat_atl main 23 0 O_____________ hurdat_atl AL011934 44.0000 -66.5000 EX 45 -4 21 41
1934156N17273 1934 23 NA NA NOT_NAMED 1934-06-20 21:00:00 ET 44.8117 -65.5319 main 0 0 P_____________ AL011934 44.8117 -65.5319 EX 42 -4 22 38
1934156N17273 1934 23 NA NA NOT_NAMED 1934-06-21 00:00:00 ET 45.7000 -64.6000 40 hurdat_atl main 0 0 O_____________ hurdat_atl AL011934 45.7000 -64.6000 EX 40 -4 22 35
1934156N17273 1934 23 NA NA NOT_NAMED 1934-06-21 03:00:00 ET 46.6392 -63.6880 main 7 7 P_____________ AL011934 46.6392 -63.6880 EX 40 -4 23 32
1934156N17273 1934 23 NA NA NOT_NAMED 1934-06-21 06:00:00 ET 47.7000 -62.8000 40 hurdat_atl main 118 33 O_____________ hurdat_atl AL011934 47.7000 -62.8000 EX 40 -4 26 28
1934156N17273 1934 23 NA NA NOT_NAMED 1934-06-21 09:00:00 ET 48.8898 -61.8824 main 22 0 P_____________ AL011934 48.8898 -61.8824 EX 37 -4 28 25
1934156N17273 1934 23 NA NA NOT_NAMED 1934-06-21 12:00:00 ET 50.2000 -61.0000 35 hurdat_atl main 0 0 O_____________ hurdat_atl AL011934 50.2000 -61.0000 EX 35 -4 29 22
1934156N17273 1934 23 NA NA NOT_NAMED 1934-06-21 15:00:00 ET 51.5831 -60.1888 main 0 0 P_____________ AL011934 51.5831 -60.1888 EX 35 -4 30 20
1934156N17273 1934 23 NA NA NOT_NAMED 1934-06-21 18:00:00 ET 53.0000 -59.4000 35 hurdat_atl main 0 O_____________ hurdat_atl AL011934 53.0000 -59.4000 EX 35 -4 30 18

IBTrACS Databaseについて

本データベースは、米国NOAAが公開する1842年以降の世界の熱帯低気圧のベストトラックデータアーカイブInternational Best Track Archive for Climate Stewardship (IBTrACS)を、ウェブで閲覧しやすい形式に変換したものです。

最終更新日:2021-11-26